createdAt,value
2022-11-23T00:02:08.611Z,99668.78
2022-11-23T00:04:45.686Z,99682.13
2022-11-23T00:07:19.091Z,99692.50
2022-11-23T00:09:52.595Z,99681.96
2022-11-23T00:12:26.097Z,99675.05
2022-11-23T00:14:59.369Z,99665.31
2022-11-23T00:17:32.679Z,99669.95
2022-11-23T00:20:06.468Z,99667.31
2022-11-23T00:22:39.685Z,99653.30
2022-11-23T00:25:13.310Z,99643.77
2022-11-23T00:27:46.997Z,99647.39
2022-11-23T00:30:21.307Z,99642.96
2022-11-23T00:32:55.781Z,99638.69
2022-11-23T00:35:29.242Z,99645.76
2022-11-23T00:38:02.420Z,99646.59
2022-11-23T00:40:35.924Z,99631.58
2022-11-23T00:43:12.596Z,99616.61
2022-11-23T00:45:46.007Z,99616.61
2022-11-23T00:48:19.863Z,99612.14
2022-11-23T00:50:53.184Z,99611.14
2022-11-23T00:53:26.660Z,99613.78
2022-11-23T00:56:00.155Z,99612.61
2022-11-23T00:58:34.186Z,99602.07
2022-11-23T01:01:12.226Z,99601.07
2022-11-23T01:03:47.446Z,99613.08
2022-11-23T01:06:22.936Z,99614.08
2022-11-23T01:09:00.147Z,99602.70
2022-11-23T01:11:34.851Z,99595.63
2022-11-23T01:14:08.008Z,99599.08
2022-11-23T01:16:43.484Z,99597.27
2022-11-23T01:19:19.138Z,99608.81
2022-11-23T01:22:42.503Z,99598.27
2022-11-23T01:25:46.758Z,99581.45
2022-11-23T01:28:20.053Z,99584.89
2022-11-23T01:30:53.228Z,99575.36
2022-11-23T01:33:31.638Z,99573.55
2022-11-23T01:36:12.363Z,99570.08
2022-11-23T01:38:46.767Z,99560.38
2022-11-23T01:41:23.069Z,99552.47
2022-11-23T01:44:33.100Z,99549.84
2022-11-23T01:47:09.110Z,99543.09
2022-11-23T01:49:47.162Z,99553.47
2022-11-23T01:52:23.462Z,99550.20
2022-11-23T01:55:08.635Z,99546.73
2022-11-23T01:57:45.630Z,99543.09
2022-11-23T02:00:19.161Z,99544.09
2022-11-23T02:02:56.960Z,99531.55
2022-11-23T02:05:36.091Z,99526.28
2022-11-23T02:08:12.272Z,99527.75
2022-11-23T02:10:45.792Z,99521.48
2022-11-23T02:13:18.924Z,99523.11
2022-11-23T02:15:54.462Z,99520.48
2022-11-23T02:18:30.856Z,99518.47
2022-11-23T02:21:05.517Z,99522.91
2022-11-23T02:23:48.244Z,99518.47
2022-11-23T02:26:26.308Z,99532.45
2022-11-23T02:29:05.937Z,99537.72
2022-11-23T02:31:39.576Z,99524.38
2022-11-23T02:34:15.452Z,99530.45
2022-11-23T02:36:52.276Z,99529.65
2022-11-23T02:39:32.490Z,99521.55
2022-11-23T02:42:07.789Z,99519.73
2022-11-23T02:44:48.815Z,99518.73
2022-11-23T02:47:22.011Z,99519.38
2022-11-23T02:49:55.406Z,99518.54
2022-11-23T02:52:28.769Z,99516.73
2022-11-23T02:55:04.096Z,99507.83
2022-11-23T02:57:38.337Z,99504.98
2022-11-23T03:00:13.791Z,99505.63
2022-11-23T03:03:22.482Z,99506.45
2022-11-23T03:06:11.998Z,99500.98
2022-11-23T03:08:45.276Z,99496.34
2022-11-23T03:11:19.088Z,99495.17
2022-11-23T03:13:53.585Z,99494.97
2022-11-23T03:16:50.509Z,99491.33
2022-11-23T03:19:49.542Z,99471.87
2022-11-23T03:23:08.544Z,99475.34
2022-11-23T03:26:00.210Z,99467.22
2022-11-23T03:28:39.590Z,99472.75
2022-11-23T03:31:13.427Z,99471.75
2022-11-23T03:33:51.276Z,99471.38
2022-11-23T03:36:24.950Z,99470.20
2022-11-23T03:38:58.067Z,99470.62
2022-11-23T03:41:43.620Z,99488.70
2022-11-23T03:44:16.942Z,99491.17
2022-11-23T03:46:52.103Z,99476.61
2022-11-23T03:49:30.545Z,99477.23
2022-11-23T03:52:04.462Z,99475.02
2022-11-23T03:54:39.009Z,99470.37
2022-11-23T03:57:12.664Z,99469.19
2022-11-23T03:59:46.411Z,99460.93
2022-11-23T04:02:20.519Z,99466.83
2022-11-23T04:05:07.613Z,99460.34
2022-11-23T04:08:06.619Z,99457.70
2022-11-23T04:10:45.037Z,99459.59
2022-11-23T04:13:25.551Z,99454.13
2022-11-23T04:15:58.954Z,99456.39
2022-11-23T04:18:32.198Z,99450.73
2022-11-23T04:21:05.667Z,99450.52
2022-11-23T04:23:38.924Z,99446.70
2022-11-23T04:26:14.252Z,99443.67
2022-11-23T04:28:48.780Z,99446.94
2022-11-23T04:31:22.079Z,99437.19
2022-11-23T04:34:04.458Z,99434.99
2022-11-23T04:36:40.965Z,99432.98
2022-11-23T04:39:16.899Z,99426.30
2022-11-23T04:42:07.463Z,99433.22
2022-11-23T04:44:41.311Z,99425.92
2022-11-23T04:47:15.088Z,99427.34
2022-11-23T04:49:53.613Z,99423.30
2022-11-23T04:52:32.832Z,99424.75
2022-11-23T04:55:06.503Z,99427.81
2022-11-23T04:57:40.283Z,99425.79
2022-11-23T05:00:17.218Z,99428.05
2022-11-23T05:02:54.634Z,99422.37
2022-11-23T05:05:31.790Z,99421.98
2022-11-23T05:08:08.629Z,99423.22
2022-11-23T05:11:04.720Z,99420.40
2022-11-23T05:13:38.304Z,99419.18
2022-11-23T05:16:11.549Z,99421.43
2022-11-23T05:18:47.137Z,99414.13
2022-11-23T05:21:20.794Z,99415.57
2022-11-23T05:23:54.963Z,99410.91
2022-11-23T05:26:30.511Z,99414.17
2022-11-23T05:29:03.849Z,99416.42
2022-11-23T05:31:41.345Z,99412.55
2022-11-23T05:34:18.099Z,99415.81
2022-11-23T05:36:52.383Z,99418.27
2022-11-23T05:39:26.830Z,99419.69
2022-11-23T05:42:00.252Z,99416.66
2022-11-23T05:44:46.082Z,99418.10
2022-11-23T05:47:25.153Z,99420.34
2022-11-23T05:49:58.771Z,99420.97
2022-11-23T05:52:33.363Z,99412.03
2022-11-23T05:55:07.391Z,99408.38
2022-11-23T05:57:43.534Z,99412.25
2022-11-23T06:00:19.516Z,99415.51
2022-11-23T06:02:54.910Z,99414.28
2022-11-23T06:05:29.433Z,99414.09
2022-11-23T06:08:02.621Z,99421.63
2022-11-23T06:10:36.016Z,99411.86
2022-11-23T06:13:09.044Z,99408.02
2022-11-23T06:15:42.272Z,99404.54
2022-11-23T06:18:16.845Z,99411.05
2022-11-23T06:20:53.749Z,99410.66
2022-11-23T06:23:26.910Z,99407.83
2022-11-23T06:26:02.868Z,99402.33
2022-11-23T06:28:38.571Z,99408.84
2022-11-23T06:31:12.315Z,99411.30
2022-11-23T06:33:48.334Z,99414.56
2022-11-23T06:36:21.378Z,99404.78
2022-11-23T06:38:56.248Z,99408.88
2022-11-23T06:41:32.634Z,99405.83
2022-11-23T06:44:07.284Z,99402.97
2022-11-23T06:46:44.976Z,99401.95
2022-11-23T06:49:20.729Z,99400.75
2022-11-23T06:52:09.665Z,99404.80
2022-11-23T06:54:43.002Z,99409.08
2022-11-23T06:57:16.115Z,99406.03
2022-11-23T06:59:49.485Z,99405.02
2022-11-23T07:02:23.929Z,99396.67
2022-11-23T07:04:57.230Z,99397.10
2022-11-23T07:07:30.867Z,99386.92
2022-11-23T07:10:12.279Z,99394.05
2022-11-23T07:13:10.116Z,99402.38
2022-11-23T07:15:46.260Z,99398.53
2022-11-23T07:18:19.413Z,99396.28
2022-11-23T07:20:58.559Z,99398.92
2022-11-23T07:23:32.231Z,99394.85
2022-11-23T07:26:06.773Z,99398.94
2022-11-23T07:28:41.388Z,99384.69
2022-11-23T07:31:16.475Z,99385.11
2022-11-23T07:33:49.938Z,99380.43
2022-11-23T07:36:23.097Z,99385.31
2022-11-23T07:38:56.701Z,99385.09
2022-11-23T07:41:30.009Z,99377.77
2022-11-23T07:44:29.115Z,99377.35
2022-11-23T07:47:07.029Z,99372.89
2022-11-23T07:49:40.001Z,99378.57
2022-11-23T07:52:13.487Z,99364.12
2022-11-23T07:54:46.638Z,99360.23
2022-11-23T07:57:27.200Z,99356.38
2022-11-23T08:00:03.789Z,99363.08
2022-11-23T08:03:25.673Z,99360.02
2022-11-23T08:06:26.108Z,99358.58
2022-11-23T08:08:47.509Z,99357.38
2022-11-23T08:11:30.732Z,99373.86
2022-11-23T08:14:03.905Z,99380.38
2022-11-23T08:16:37.295Z,99389.72
2022-11-23T08:19:10.809Z,99394.61
2022-11-23T08:21:50.215Z,99396.87
2022-11-23T08:24:23.272Z,99393.80
2022-11-23T08:26:57.538Z,99394.22
2022-11-23T08:29:30.769Z,99387.67
2022-11-23T08:32:06.715Z,99391.76
2022-11-23T08:34:39.825Z,99387.26
2022-11-23T08:37:12.973Z,99389.49
2022-11-23T08:39:46.669Z,99385.63
2022-11-23T08:42:22.067Z,99384.19
2022-11-23T08:44:55.202Z,99384.56
2022-11-23T08:47:28.596Z,99376.20
2022-11-23T08:50:01.613Z,99381.91
2022-11-23T08:52:35.084Z,99379.63
2022-11-23T08:55:09.105Z,99368.84
2022-11-23T08:57:42.301Z,99367.59
2022-11-23T09:00:18.157Z,99362.89
2022-11-23T09:02:52.621Z,99364.09
2022-11-23T09:05:26.027Z,99367.95
2022-11-23T09:08:00.918Z,99366.50
2022-11-23T09:10:34.075Z,99364.03
2022-11-23T09:13:07.177Z,99353.83
2022-11-23T09:15:40.466Z,99350.53
2022-11-23T09:18:13.906Z,99348.88
2022-11-23T09:20:46.893Z,99352.72
2022-11-23T09:23:22.939Z,99350.25
2022-11-23T09:25:55.895Z,99360.42
2022-11-23T09:28:29.212Z,99365.30
2022-11-23T09:31:06.181Z,99351.02
2022-11-23T09:33:39.246Z,99332.22
2022-11-23T09:36:12.594Z,99317.13
2022-11-23T09:38:56.253Z,99309.77
2022-11-23T09:42:02.255Z,99315.45
2022-11-23T09:44:49.499Z,99305.23
2022-11-23T09:47:40.529Z,99322.34
2022-11-23T09:50:23.504Z,99322.70
2022-11-23T09:52:59.281Z,99307.97
2022-11-23T09:55:39.579Z,99306.51
2022-11-23T09:58:18.007Z,99314.63
2022-11-23T10:00:57.397Z,99311.55
2022-11-23T10:03:34.537Z,99292.53
2022-11-23T10:06:20.816Z,99282.74
2022-11-23T10:09:08.089Z,99287.02
2022-11-23T10:12:05.519Z,99287.17
2022-11-23T10:14:53.220Z,99296.09
2022-11-23T10:17:42.554Z,99285.03
2022-11-23T10:20:35.613Z,99280.31
2022-11-23T10:23:19.830Z,99292.71
2022-11-23T10:25:54.886Z,99291.67
2022-11-23T10:28:31.700Z,99286.96
2022-11-23T10:31:14.521Z,99291.03
2022-11-23T10:33:56.864Z,99278.11
2022-11-23T10:36:28.290Z,99265.22
2022-11-23T10:39:03.783Z,99257.84
2022-11-23T10:41:36.731Z,99252.89
2022-11-23T10:44:28.533Z,99244.48
2022-11-23T10:47:01.472Z,99240.34
2022-11-23T10:49:40.192Z,99246.03
2022-11-23T10:52:34.133Z,99255.97
2022-11-23T10:55:12.125Z,99269.66
2022-11-23T10:57:48.273Z,99263.08
2022-11-23T11:00:30.228Z,99268.77
2022-11-23T11:03:22.595Z,99263.81
2022-11-23T11:06:14.658Z,99263.59
2022-11-23T11:08:55.801Z,99262.11
2022-11-23T11:11:33.829Z,99253.70
2022-11-23T11:14:08.524Z,99259.38
2022-11-23T11:16:50.864Z,99248.76
2022-11-23T11:19:28.123Z,99241.58
2022-11-23T11:22:04.175Z,99242.16
2022-11-23T11:24:45.386Z,99241.95
2022-11-23T11:27:22.695Z,99248.20
2022-11-23T11:30:00.652Z,99243.47
2022-11-23T11:32:43.389Z,99252.61
2022-11-23T11:35:21.340Z,99260.96
2022-11-23T11:37:57.653Z,99267.90
2022-11-23T11:40:35.046Z,99266.28
2022-11-23T11:43:13.318Z,99268.11
2022-11-23T11:48:46.765Z,99267.08
2022-11-23T11:51:29.611Z,99261.41
2022-11-23T11:54:13.030Z,99259.80
2022-11-23T11:56:48.253Z,99263.83
2022-11-23T11:59:28.671Z,99264.87
2022-11-23T12:02:16.138Z,99260.96
2022-11-23T12:04:56.849Z,99262.80
2022-11-23T12:07:34.699Z,99263.38
2022-11-23T12:10:17.033Z,99260.51
2022-11-23T12:12:49.944Z,99267.45
2022-11-23T12:15:48.223Z,99265.38
2022-11-23T12:19:01.274Z,99266.75
2022-11-23T12:21:54.505Z,99265.95
2022-11-23T12:24:43.480Z,99270.00
2022-11-23T12:27:27.177Z,99267.92
2022-11-23T12:30:16.137Z,99261.36
2022-11-23T12:33:00.660Z,99267.47
2022-11-23T12:35:56.165Z,99267.25
2022-11-23T12:38:37.101Z,99259.28
2022-11-23T12:41:23.598Z,99255.13
2022-11-23T12:44:18.265Z,99246.33
2022-11-23T12:46:56.190Z,99245.28
2022-11-23T12:49:40.365Z,99242.41
2022-11-23T12:52:32.623Z,99241.38
2022-11-23T12:55:19.815Z,99237.09
2022-11-23T12:58:01.573Z,99237.68
2022-11-23T13:00:40.188Z,99241.38
2022-11-23T13:03:52.743Z,99241.38
2022-11-23T13:07:37.485Z,99245.87
2022-11-23T13:10:30.963Z,99247.73
2022-11-23T13:13:25.176Z,99246.11
2022-11-23T13:16:28.486Z,99257.33
2022-11-23T13:19:19.418Z,99266.93
2022-11-23T13:21:52.508Z,99267.97
2022-11-23T13:24:36.504Z,99279.41
2022-11-23T13:27:44.417Z,99280.23
2022-11-23T13:30:52.059Z,99274.33
2022-11-23T13:33:40.018Z,99285.55
2022-11-23T13:37:10.581Z,99287.38
2022-11-23T13:40:04.707Z,99295.14
2022-11-23T13:42:37.779Z,99295.94
2022-11-23T13:45:30.692Z,99296.98
2022-11-23T13:48:48.983Z,99293.52
2022-11-23T13:51:13.080Z,99299.87
2022-11-23T13:53:52.523Z,99316.63
2022-11-23T13:56:35.320Z,99304.37
2022-11-23T13:59:32.604Z,99311.77
2022-11-23T14:02:29.718Z,99317.91
2022-11-23T14:05:53.678Z,99310.97
2022-11-23T14:08:27.691Z,99312.80
2022-11-23T14:11:02.197Z,99312.00
2022-11-23T14:13:37.064Z,99313.04
2022-11-23T14:16:15.113Z,99313.04
2022-11-23T14:19:02.552Z,99308.76
2022-11-23T14:21:55.404Z,99307.14
2022-11-23T14:24:51.658Z,99308.63
2022-11-23T14:27:47.351Z,99304.80
2022-11-23T14:30:41.271Z,99305.83
2022-11-23T14:33:44.425Z,99308.70
2022-11-23T14:36:30.724Z,99305.01
2022-11-23T14:39:28.424Z,99306.05
2022-11-23T14:42:05.140Z,99308.94
2022-11-23T14:44:41.063Z,99312.39
2022-11-23T14:47:15.123Z,99309.98
2022-11-23T14:49:54.373Z,99311.60
2022-11-23T14:52:31.323Z,99304.66
2022-11-23T14:55:07.473Z,99305.70
2022-11-23T14:57:49.439Z,99310.19
2022-11-23T15:00:37.209Z,99311.22
2022-11-23T15:03:48.951Z,99322.89
2022-11-23T15:06:14.524Z,99321.27
2022-11-23T15:08:54.064Z,99318.02
2022-11-23T15:11:30.612Z,99318.02
2022-11-23T15:14:03.680Z,99315.61
2022-11-23T15:16:43.392Z,99313.61
2022-11-23T15:19:30.127Z,99313.02
2022-11-23T15:22:03.204Z,99324.92
2022-11-23T15:24:36.092Z,99327.20
2022-11-23T15:27:17.964Z,99332.16
2022-11-23T15:29:57.657Z,99337.89
2022-11-23T15:32:34.384Z,99339.75
2022-11-23T15:35:14.029Z,99348.38
2022-11-23T15:37:50.328Z,99348.62
2022-11-23T15:40:24.120Z,99352.06
2022-11-23T15:42:57.646Z,99350.45
2022-11-23T15:45:58.659Z,99355.76
2022-11-23T15:48:35.336Z,99351.48
2022-11-23T15:51:10.056Z,99346.16
2022-11-23T15:53:51.504Z,99362.11
2022-11-23T15:56:28.783Z,99367.42
2022-11-23T15:59:05.298Z,99374.59
2022-11-23T16:01:41.654Z,99374.36
2022-11-23T16:04:30.412Z,99376.22
2022-11-23T16:07:17.345Z,99380.70
2022-11-23T16:09:53.107Z,99385.81
2022-11-23T16:12:29.496Z,99378.88
2022-11-23T16:15:41.699Z,99382.56
2022-11-23T16:18:25.789Z,99380.11
2022-11-23T16:21:01.579Z,99388.91
2022-11-23T16:23:49.700Z,99395.25
2022-11-23T16:26:31.405Z,99393.39
2022-11-23T16:29:06.084Z,99392.80
2022-11-23T16:31:42.307Z,99391.77
2022-11-23T16:34:19.467Z,99389.11
2022-11-23T16:36:53.268Z,99386.45
2022-11-23T16:39:27.913Z,99384.24
2022-11-23T16:42:00.773Z,99394.87
2022-11-23T16:44:38.734Z,99389.55
2022-11-23T16:47:25.176Z,99400.18
2022-11-23T16:49:58.924Z,99395.90
2022-11-23T16:52:33.421Z,99398.55
2022-11-23T16:55:07.466Z,99394.27
2022-11-23T16:57:41.591Z,99407.56
2022-11-23T17:00:21.055Z,99407.56
2022-11-23T17:02:54.102Z,99391.23
2022-11-23T17:05:27.066Z,99390.41
2022-11-23T17:08:00.166Z,99390.64
2022-11-23T17:10:34.154Z,99403.09
2022-11-23T17:13:21.836Z,99401.47
2022-11-23T17:15:55.699Z,99401.47
2022-11-23T17:18:28.643Z,99412.33
2022-11-23T17:21:01.626Z,99421.09
2022-11-23T17:23:34.869Z,99416.02
2022-11-23T17:26:30.047Z,99417.64
2022-11-23T17:29:06.146Z,99421.33
2022-11-23T17:31:43.708Z,99426.64
2022-11-23T17:34:17.452Z,99425.81
2022-11-23T17:36:53.445Z,99425.81
2022-11-23T17:39:28.709Z,99420.50
2022-11-23T17:42:05.111Z,99418.88
2022-11-23T17:44:41.100Z,99432.75
2022-11-23T17:47:29.812Z,99431.95
2022-11-23T17:50:03.417Z,99430.09
2022-11-23T17:52:36.565Z,99430.92
2022-11-23T17:55:12.675Z,99438.89
2022-11-23T17:57:46.697Z,99437.86
2022-11-23T18:00:23.752Z,99434.38
2022-11-23T18:02:56.765Z,99437.86
2022-11-23T18:05:30.080Z,99432.31
2022-11-23T18:08:03.076Z,99437.03
2022-11-23T18:10:35.910Z,99439.69
2022-11-23T18:13:10.126Z,99447.89
2022-11-23T18:15:45.354Z,99450.55
2022-11-23T18:18:19.963Z,99453.20
2022-11-23T18:20:53.174Z,99466.48
2022-11-23T18:23:26.188Z,99461.97
2022-11-23T18:26:03.581Z,99462.80
2022-11-23T18:28:36.466Z,99466.25
2022-11-23T18:31:10.852Z,99461.16
2022-11-23T18:33:43.997Z,99461.16
2022-11-23T18:36:17.649Z,99470.16
2022-11-23T18:38:50.800Z,99473.62
2022-11-23T18:41:23.860Z,99479.96
2022-11-23T18:43:56.749Z,99479.76
2022-11-23T18:46:29.659Z,99480.79
2022-11-23T18:49:02.656Z,99484.24
2022-11-23T18:51:37.218Z,99492.21
2022-11-23T18:54:10.352Z,99500.18
2022-11-23T18:56:43.340Z,99500.18
2022-11-23T18:59:42.016Z,99511.63
2022-11-23T19:02:10.045Z,99507.35
2022-11-23T19:04:43.286Z,99510.00
2022-11-23T19:07:16.254Z,99499.38
2022-11-23T19:09:50.877Z,99498.55
2022-11-23T19:12:24.066Z,99506.32
2022-11-23T19:14:57.030Z,99508.15
2022-11-23T19:17:30.006Z,99500.18
2022-11-23T19:20:04.003Z,99493.23
2022-11-23T19:22:37.228Z,99493.23
2022-11-23T19:25:11.649Z,99496.92
2022-11-23T19:27:44.554Z,99489.78
2022-11-23T19:30:19.348Z,99491.61
2022-11-23T19:32:52.169Z,99496.33
2022-11-23T19:35:25.172Z,99510.64
2022-11-23T19:37:58.638Z,99521.27
2022-11-23T19:40:32.479Z,99515.95
2022-11-23T19:43:05.395Z,99520.23
2022-11-23T19:45:38.260Z,99520.23
2022-11-23T19:48:11.723Z,99516.78
2022-11-23T19:50:44.570Z,99517.81
2022-11-23T19:53:17.550Z,99511.47
2022-11-23T19:55:50.380Z,99511.47
2022-11-23T19:58:23.505Z,99506.95
2022-11-23T20:01:02.253Z,99506.16
2022-11-23T20:03:38.417Z,99500.84
2022-11-23T20:06:17.522Z,99525.55
2022-11-23T20:08:54.984Z,99545.17
2022-11-23T20:11:29.752Z,99539.26
2022-11-23T20:14:03.131Z,99544.56
2022-11-23T20:16:36.279Z,99542.73
2022-11-23T20:19:10.496Z,99552.53
2022-11-23T20:21:43.555Z,99552.53
2022-11-23T20:24:17.086Z,99550.91
2022-11-23T20:26:49.980Z,99567.87
2022-11-23T20:29:23.160Z,99564.19
2022-11-23T20:31:56.657Z,99567.87
2022-11-23T20:34:31.348Z,99575.84
2022-11-23T20:37:05.956Z,99566.05
2022-11-23T20:39:39.030Z,99567.87
2022-11-23T20:42:14.874Z,99566.24
2022-11-23T20:44:47.844Z,99568.89
2022-11-23T20:47:20.700Z,99576.06
2022-11-23T20:49:53.635Z,99572.58
2022-11-23T20:52:28.757Z,99567.50
2022-11-23T20:55:02.187Z,99568.30
2022-11-23T20:57:38.419Z,99566.67
2022-11-23T21:00:16.977Z,99564.02
2022-11-23T21:02:53.428Z,99563.22
2022-11-23T21:05:26.487Z,99551.77
2022-11-23T21:08:02.701Z,99553.63
2022-11-23T21:11:22.820Z,99552.59
2022-11-23T21:14:48.945Z,99551.77
2022-11-23T21:17:55.230Z,99554.66
2022-11-23T21:20:59.487Z,99552.80
2022-11-23T21:23:54.035Z,99541.38
2022-11-23T21:26:28.658Z,99544.03
2022-11-23T21:29:02.987Z,99541.58
2022-11-23T21:31:36.452Z,99547.72
2022-11-23T21:34:12.436Z,99547.91
2022-11-23T21:36:45.328Z,99552.63
2022-11-23T21:39:18.812Z,99552.02
2022-11-23T21:41:53.753Z,99550.39
2022-11-23T21:44:26.624Z,99562.47
2022-11-23T21:46:59.632Z,99559.81
2022-11-23T21:49:32.731Z,99555.16
2022-11-23T21:52:09.073Z,99552.94
2022-11-23T21:54:47.323Z,99559.47
2022-11-23T21:57:22.226Z,99561.75
2022-11-23T21:59:55.046Z,99567.48
2022-11-23T22:02:28.338Z,99554.64
2022-11-23T22:05:04.218Z,99553.20
2022-11-23T22:07:37.753Z,99549.95
2022-11-23T22:10:11.755Z,99546.09
2022-11-23T22:12:44.764Z,99545.48
2022-11-23T22:15:17.909Z,99539.80
2022-11-23T22:17:53.228Z,99539.41
2022-11-23T22:20:26.309Z,99528.41
2022-11-23T22:22:59.332Z,99534.94
2022-11-23T22:25:33.489Z,99543.13
2022-11-23T22:28:06.769Z,99535.78
2022-11-23T22:30:39.703Z,99529.67
2022-11-23T22:33:13.636Z,99533.55
2022-11-23T22:35:46.444Z,99540.11
2022-11-23T22:38:19.501Z,99539.92
2022-11-23T22:40:52.290Z,99541.74
2022-11-23T22:43:25.098Z,99541.14
2022-11-23T22:46:05.378Z,99541.36
2022-11-23T22:48:41.911Z,99539.33
2022-11-23T22:51:16.622Z,99538.53
2022-11-23T22:53:50.140Z,99544.03
2022-11-23T22:56:23.823Z,99548.72
2022-11-23T22:58:56.993Z,99549.97
2022-11-23T23:01:32.082Z,99555.27
2022-11-23T23:04:05.662Z,99551.19
2022-11-23T23:06:39.095Z,99549.78
2022-11-23T23:09:13.258Z,99556.30
2022-11-23T23:11:46.170Z,99546.94
2022-11-23T23:14:19.054Z,99553.46
2022-11-23T23:16:52.785Z,99547.77
2022-11-23T23:19:26.730Z,99556.14
2022-11-23T23:21:59.631Z,99556.75
2022-11-23T23:24:32.978Z,99566.13
2022-11-23T23:27:06.319Z,99561.25
2022-11-23T23:29:39.759Z,99560.86
2022-11-23T23:32:13.625Z,99567.78
2022-11-23T23:34:46.418Z,99577.16
2022-11-23T23:37:23.602Z,99580.44
2022-11-23T23:39:57.254Z,99571.27
2022-11-23T23:42:30.149Z,99568.61
2022-11-23T23:45:04.550Z,99558.83
2022-11-23T23:47:37.776Z,99548.03
2022-11-23T23:50:12.446Z,99549.64
2022-11-23T23:52:45.465Z,99541.49
2022-11-23T23:55:18.474Z,99540.27
2022-11-23T23:57:51.223Z,99543.73
